Time;durP1;ratioP1;P1;durP2;ratioP2;P2;SDS_P1;SDS_P2;PMS_P1;PMS_P2;Temp;Humidity;BMP_temperature;BMP_pressure;BME280_temperature;BME280_humidity;BME280_pressure;Samples;Min_cycle;Max_cycle;Signal;HPM_P1;HPM_P2
2023/12/28 00:01:50;;;;;;;3.20;1.90;;;;;;;;;;5022155;28;20238;-78
2023/12/28 00:04:16;;;;;;;3.90;1.63;;;;;;;;;;5016898;28;20616;-80
2023/12/28 00:06:41;;;;;;;5.35;1.98;;;;;;;;;;5016063;28;20241;-80
2023/12/28 00:09:09;;;;;;;2.47;1.65;;;;;;;;;;5025776;28;20197;-79
2023/12/28 00:11:35;;;;;;;5.25;2.20;;;;;;;;;;5022590;28;20198;-79
2023/12/28 00:14:00;;;;;;;2.25;1.90;;;;;;;;;;5001484;28;20194;-80
2023/12/28 00:16:26;;;;;;;3.85;2.00;;;;;;;;;;5011945;28;20211;-79
2023/12/28 00:18:51;;;;;;;4.97;1.90;;;;;;;;;;5036389;28;20691;-80
2023/12/28 00:21:17;;;;;;;5.07;2.30;;;;;;;;;;5028154;28;20250;-80
2023/12/28 00:23:42;;;;;;;3.42;1.73;;;;;;;;;;5033298;28;20206;-80
2023/12/28 00:26:08;;;;;;;4.40;2.10;;;;;;;;;;5004663;28;20210;-80
2023/12/28 00:28:33;;;;;;;4.10;2.13;;;;;;;;;;5033951;28;20186;-80
2023/12/28 00:30:59;;;;;;;4.97;2.22;;;;;;;;;;5031802;28;20727;-82
2023/12/28 00:33:24;;;;;;;2.67;1.60;;;;;;;;;;5015214;28;20183;-79
2023/12/28 00:35:50;;;;;;;3.42;1.85;;;;;;;;;;5024592;28;20220;-78
2023/12/28 00:38:15;;;;;;;3.83;2.08;;;;;;;;;;5028832;28;20182;-80
2023/12/28 00:40:40;;;;;;;4.78;1.92;;;;;;;;;;5030740;28;20244;-80
2023/12/28 00:43:07;;;;;;;6.47;2.05;;;;;;;;;;5034636;28;20644;-80
2023/12/28 00:45:32;;;;;;;4.15;2.13;;;;;;;;;;5020351;28;20210;-80
2023/12/28 00:47:58;;;;;;;2.63;1.73;;;;;;;;;;5014249;28;20311;-79
2023/12/28 00:50:23;;;;;;;2.83;1.90;;;;;;;;;;5018223;28;20188;-79
2023/12/28 00:52:49;;;;;;;4.45;2.20;;;;;;;;;;5037085;28;20190;-80
2023/12/28 00:55:14;;;;;;;4.78;2.05;;;;;;;;;;5030511;28;20174;-78
2023/12/28 00:57:40;;;;;;;3.25;1.98;;;;;;;;;;5029222;28;20196;-79
2023/12/28 01:00:06;;;;;;;2.22;1.75;;;;;;;;;;5027731;28;20196;-78
2023/12/28 01:02:31;;;;;;;6.00;2.25;;;;;;;;;;5032250;28;20491;-78
2023/12/28 01:04:57;;;;;;;3.00;1.80;;;;;;;;;;5030337;28;20201;-79
2023/12/28 01:07:22;;;;;;;4.10;2.10;;;;;;;;;;5031079;28;20224;-79
2023/12/28 01:09:47;;;;;;;4.80;1.88;;;;;;;;;;5016290;28;20194;-79
2023/12/28 01:12:13;;;;;;;5.00;2.05;;;;;;;;;;5028027;28;20182;-79
2023/12/28 01:14:38;;;;;;;4.53;2.20;;;;;;;;;;5026774;28;20662;-78
2023/12/28 01:17:04;;;;;;;3.58;2.15;;;;;;;;;;5030982;28;20270;-78
2023/12/28 01:19:29;;;;;;;6.30;2.05;;;;;;;;;;5012893;28;20249;-79
2023/12/28 01:21:55;;;;;;;4.25;2.10;;;;;;;;;;5014630;28;20183;-78
2023/12/28 01:24:20;;;;;;;3.45;2.28;;;;;;;;;;4998644;28;20249;-78
2023/12/28 01:26:45;;;;;;;6.70;2.40;;;;;;;;;;5014742;28;20541;-79
2023/12/28 01:29:11;;;;;;;3.92;2.22;;;;;;;;;;5017675;28;20190;-79
2023/12/28 01:31:38;;;;;;;3.55;2.17;;;;;;;;;;4995601;28;20694;-78
2023/12/28 01:34:04;;;;;;;5.60;2.22;;;;;;;;;;5012232;28;20179;-78
2023/12/28 01:36:31;;;;;;;3.45;1.98;;;;;;;;;;5033151;28;20202;-81
2023/12/28 01:38:56;;;;;;;4.78;2.03;;;;;;;;;;5018157;28;20243;-79
2023/12/28 01:41:22;;;;;;;3.53;1.90;;;;;;;;;;5021434;28;20219;-79
2023/12/28 01:43:47;;;;;;;4.95;2.30;;;;;;;;;;5010832;28;20190;-77
2023/12/28 01:46:21;;;;;;;4.47;2.35;;;;;;;;;;5016522;28;20214;-78
2023/12/28 01:48:48;;;;;;;4.22;2.25;;;;;;;;;;4998403;28;20205;-79
2023/12/28 01:51:14;;;;;;;3.08;2.10;;;;;;;;;;5018813;28;20202;-79
2023/12/28 01:53:41;;;;;;;3.28;2.00;;;;;;;;;;5000136;28;20195;-78
2023/12/28 01:56:07;;;;;;;3.28;2.13;;;;;;;;;;5037126;28;20186;-78
2023/12/28 01:58:35;;;;;;;6.70;2.20;;;;;;;;;;5014843;28;20506;-79
2023/12/28 02:01:01;;;;;;;2.53;2.17;;;;;;;;;;4981348;28;20218;-78
2023/12/28 02:03:26;;;;;;;6.13;2.10;;;;;;;;;;5015252;28;20235;-79
2023/12/28 02:05:52;;;;;;;3.45;1.98;;;;;;;;;;5033846;28;20217;-78
2023/12/28 02:08:17;;;;;;;5.05;2.40;;;;;;;;;;5014881;28;20191;-78
2023/12/28 02:10:43;;;;;;;4.55;2.08;;;;;;;;;;5014421;28;20238;-79
2023/12/28 02:13:09;;;;;;;3.40;2.20;;;;;;;;;;5018536;28;20183;-79
2023/12/28 02:15:34;;;;;;;4.90;2.33;;;;;;;;;;5039110;28;20545;-79
2023/12/28 02:18:14;;;;;;;4.07;1.95;;;;;;;;;;5018298;28;20216;-79
2023/12/28 02:20:42;;;;;;;4.10;1.80;;;;;;;;;;5021104;28;20261;-80
2023/12/28 02:23:10;;;;;;;4.70;2.20;;;;;;;;;;5017140;28;20203;-79
2023/12/28 02:25:35;;;;;;;5.60;2.55;;;;;;;;;;5008466;28;20261;-79
2023/12/28 02:28:01;;;;;;;3.47;2.00;;;;;;;;;;5010789;28;20597;-79
2023/12/28 02:30:29;;;;;;;6.07;2.38;;;;;;;;;;5015186;28;20245;-80
2023/12/28 02:33:09;;;;;;;4.70;2.47;;;;;;;;;;5023432;28;20220;-79
2023/12/28 02:35:57;;;;;;;5.20;2.22;;;;;;;;;;5013644;28;20183;-79
2023/12/28 02:38:25;;;;;;;4.50;2.30;;;;;;;;;;5005329;28;20520;-79
2023/12/28 02:40:52;;;;;;;4.00;2.67;;;;;;;;;;5013681;28;20186;-80
2023/12/28 02:43:17;;;;;;;2.83;2.25;;;;;;;;;;4984217;28;20223;-78
2023/12/28 02:45:43;;;;;;;6.35;2.40;;;;;;;;;;5021976;28;20203;-78
2023/12/28 02:48:08;;;;;;;5.35;2.35;;;;;;;;;;5007344;28;20178;-80
2023/12/28 02:50:34;;;;;;;5.55;2.55;;;;;;;;;;5012700;28;20598;-79
2023/12/28 02:53:00;;;;;;;5.90;2.65;;;;;;;;;;5003196;28;20258;-78
2023/12/28 02:55:26;;;;;;;5.28;2.70;;;;;;;;;;4998655;28;20206;-78
2023/12/28 02:57:54;;;;;;;3.40;2.42;;;;;;;;;;5013446;28;20187;-79
2023/12/28 03:00:20;;;;;;;8.07;2.65;;;;;;;;;;5018335;28;20241;-79
2023/12/28 03:02:46;;;;;;;12.88;3.45;;;;;;;;;;5012393;28;20203;-79
2023/12/28 03:05:11;;;;;;;6.88;3.13;;;;;;;;;;5018320;28;20293;-79
2023/12/28 03:07:37;;;;;;;7.15;2.58;;;;;;;;;;5003410;28;20194;-79
2023/12/28 03:10:03;;;;;;;4.80;2.78;;;;;;;;;;5002328;28;20183;-80
2023/12/28 03:12:30;;;;;;;4.88;2.60;;;;;;;;;;5019631;28;20335;-79
2023/12/28 03:14:55;;;;;;;5.43;2.05;;;;;;;;;;5016123;28;20281;-79
2023/12/28 03:17:21;;;;;;;4.35;2.67;;;;;;;;;;5014771;28;20663;-79
2023/12/28 03:19:47;;;;;;;4.63;2.58;;;;;;;;;;5017329;28;20238;-80
2023/12/28 03:22:12;;;;;;;5.38;2.30;;;;;;;;;;5022185;28;20210;-79
2023/12/28 03:24:38;;;;;;;6.45;2.50;;;;;;;;;;5027514;28;20207;-80
2023/12/28 03:27:04;;;;;;;4.70;2.40;;;;;;;;;;5016047;28;20194;-79
2023/12/28 03:29:30;;;;;;;5.25;2.58;;;;;;;;;;5037581;28;20270;-79
2023/12/28 03:31:55;;;;;;;6.15;2.55;;;;;;;;;;5025951;28;20647;-79
2023/12/28 03:34:22;;;;;;;5.43;2.10;;;;;;;;;;5025207;28;20217;-79
2023/12/28 03:36:48;;;;;;;8.02;2.75;;;;;;;;;;5022244;28;20187;-78
2023/12/28 03:39:13;;;;;;;6.20;2.90;;;;;;;;;;5018828;28;20339;-79
2023/12/28 03:41:39;;;;;;;7.00;2.58;;;;;;;;;;5027430;28;20350;-79
2023/12/28 03:44:04;;;;;;;3.47;2.13;;;;;;;;;;5000667;28;20302;-79
2023/12/28 03:46:30;;;;;;;5.07;3.08;;;;;;;;;;5037977;28;20591;-79
2023/12/28 03:48:55;;;;;;;5.53;2.63;;;;;;;;;;5019384;28;20190;-78
2023/12/28 03:51:20;;;;;;;5.40;2.38;;;;;;;;;;5037509;28;20345;-78
2023/12/28 03:53:46;;;;;;;7.07;2.55;;;;;;;;;;5008135;28;20221;-80
2023/12/28 03:56:22;;;;;;;5.60;2.80;;;;;;;;;;5018121;28;20183;-78
2023/12/28 03:58:48;;;;;;;6.40;2.38;;;;;;;;;;5036632;28;20185;-79
2023/12/28 04:01:14;;;;;;;4.88;2.13;;;;;;;;;;5022755;28;20186;-80
2023/12/28 04:03:39;;;;;;;5.22;2.33;;;;;;;;;;5038783;28;20189;-79
2023/12/28 04:06:05;;;;;;;7.68;2.20;;;;;;;;;;5039476;28;20222;-79
2023/12/28 04:08:30;;;;;;;4.18;2.10;;;;;;;;;;5038162;28;20550;-78
2023/12/28 04:10:56;;;;;;;4.88;2.08;;;;;;;;;;5021558;28;20197;-79
2023/12/28 04:13:22;;;;;;;6.07;2.55;;;;;;;;;;5021970;28;20189;-80
2023/12/28 04:15:47;;;;;;;7.82;2.22;;;;;;;;;;5009927;28;20225;-79
2023/12/28 04:18:12;;;;;;;4.75;2.42;;;;;;;;;;5031272;28;20198;-79
2023/12/28 04:20:38;;;;;;;6.50;2.17;;;;;;;;;;5005142;28;20542;-79
2023/12/28 04:23:03;;;;;;;7.07;2.20;;;;;;;;;;5022412;28;20185;-79
2023/12/28 04:25:29;;;;;;;9.60;2.63;;;;;;;;;;5035881;28;20236;-79
2023/12/28 04:27:54;;;;;;;4.85;2.22;;;;;;;;;;5038078;28;20276;-79
2023/12/28 04:30:19;;;;;;;4.63;2.13;;;;;;;;;;5018383;28;20734;-79
2023/12/28 04:32:45;;;;;;;7.32;2.30;;;;;;;;;;5032133;28;20191;-80
2023/12/28 04:35:10;;;;;;;5.28;2.00;;;;;;;;;;5037697;28;20186;-78
2023/12/28 04:37:36;;;;;;;5.90;2.00;;;;;;;;;;5007977;28;20193;-79
2023/12/28 04:40:03;;;;;;;5.30;2.15;;;;;;;;;;5038198;28;20195;-80
2023/12/28 04:42:29;;;;;;;4.80;2.22;;;;;;;;;;5023365;28;20205;-79
2023/12/28 04:44:54;;;;;;;4.68;2.05;;;;;;;;;;5029068;28;20764;-79
2023/12/28 04:47:19;;;;;;;5.47;2.47;;;;;;;;;;5034743;28;20780;-80
2023/12/28 04:49:45;;;;;;;5.47;2.13;;;;;;;;;;5024977;28;20724;-79
2023/12/28 04:52:10;;;;;;;7.82;2.83;;;;;;;;;;5018101;28;20213;-78
2023/12/28 04:54:36;;;;;;;5.95;2.20;;;;;;;;;;5013045;28;20201;-79
2023/12/28 04:57:01;;;;;;;3.95;2.05;;;;;;;;;;5030480;28;20274;-79
2023/12/28 04:59:27;;;;;;;5.88;1.98;;;;;;;;;;5020200;28;20197;-79
2023/12/28 05:01:52;;;;;;;7.85;2.67;;;;;;;;;;5016955;28;20201;-78
2023/12/28 05:04:17;;;;;;;3.65;2.10;;;;;;;;;;5025392;28;20200;-79
2023/12/28 05:06:43;;;;;;;8.35;2.20;;;;;;;;;;5020915;28;20205;-78
2023/12/28 05:09:08;;;;;;;6.78;2.15;;;;;;;;;;5031689;28;20193;-79
2023/12/28 05:11:34;;;;;;;6.82;2.40;;;;;;;;;;5004019;28;20216;-79
2023/12/28 05:13:59;;;;;;;5.75;1.98;;;;;;;;;;5021304;28;20199;-78
2023/12/28 05:16:26;;;;;;;6.22;2.13;;;;;;;;;;5015493;28;20201;-79
2023/12/28 05:18:51;;;;;;;5.90;2.15;;;;;;;;;;5036853;28;20205;-80
2023/12/28 05:21:17;;;;;;;9.38;2.17;;;;;;;;;;5003702;28;20201;-79
2023/12/28 05:23:42;;;;;;;3.70;2.03;;;;;;;;;;5017467;28;20248;-79
2023/12/28 05:26:08;;;;;;;6.28;2.35;;;;;;;;;;5023391;28;20253;-78
2023/12/28 05:28:33;;;;;;;4.00;1.92;;;;;;;;;;5024744;28;20192;-79
2023/12/28 05:30:58;;;;;;;6.20;2.05;;;;;;;;;;5002311;28;20179;-80
2023/12/28 05:33:25;;;;;;;5.15;2.08;;;;;;;;;;5013126;28;20181;-79
2023/12/28 05:35:51;;;;;;;6.20;2.20;;;;;;;;;;5031762;28;20201;-79
2023/12/28 05:38:17;;;;;;;8.80;2.05;;;;;;;;;;5026612;28;20182;-78
2023/12/28 05:40:44;;;;;;;10.55;2.60;;;;;;;;;;5000809;28;20522;-79
2023/12/28 05:43:11;;;;;;;10.48;2.10;;;;;;;;;;5016806;28;20668;-79
2023/12/28 05:45:36;;;;;;;10.35;2.13;;;;;;;;;;5019325;28;20205;-79
2023/12/28 05:48:02;;;;;;;10.00;2.08;;;;;;;;;;5010114;28;20305;-79
2023/12/28 05:50:28;;;;;;;13.10;2.60;;;;;;;;;;5016235;28;20191;-79
2023/12/28 05:52:53;;;;;;;10.18;2.15;;;;;;;;;;5021535;28;20561;-79
2023/12/28 05:55:18;;;;;;;8.98;2.72;;;;;;;;;;5018436;28;20559;-79
2023/12/28 05:57:44;;;;;;;6.82;2.08;;;;;;;;;;5016773;28;20577;-79
2023/12/28 06:00:19;;;;;;;7.97;1.85;;;;;;;;;;5028688;28;20569;-79
2023/12/28 06:02:46;;;;;;;12.43;2.30;;;;;;;;;;5032913;28;20831;-79
2023/12/28 06:05:12;;;;;;;8.40;2.33;;;;;;;;;;5008244;28;20209;-77
2023/12/28 06:07:37;;;;;;;7.25;1.73;;;;;;;;;;5025458;28;20190;-78
2023/12/28 06:10:04;;;;;;;7.88;1.73;;;;;;;;;;5033744;28;20198;-79
2023/12/28 06:12:30;;;;;;;15.30;2.10;;;;;;;;;;5024825;28;20194;-78
2023/12/28 06:14:55;;;;;;;12.65;2.22;;;;;;;;;;5024604;28;20178;-79
2023/12/28 06:17:20;;;;;;;11.05;2.03;;;;;;;;;;5006620;28;20190;-80
2023/12/28 06:19:46;;;;;;;8.82;2.13;;;;;;;;;;5020355;28;20226;-78
2023/12/28 06:22:11;;;;;;;8.57;1.98;;;;;;;;;;5013675;28;20201;-78
2023/12/28 06:24:40;;;;;;;6.45;1.88;;;;;;;;;;5025798;28;20450;-78
2023/12/28 06:27:05;;;;;;;13.85;2.10;;;;;;;;;;5014071;28;20233;-78
2023/12/28 06:29:31;;;;;;;12.40;2.17;;;;;;;;;;5015245;28;20532;-77
2023/12/28 06:31:56;;;;;;;14.07;2.40;;;;;;;;;;5023093;28;20244;-79
2023/12/28 06:34:22;;;;;;;11.10;1.85;;;;;;;;;;5031665;28;20186;-78
2023/12/28 06:36:47;;;;;;;11.38;1.98;;;;;;;;;;5014162;28;20198;-79
2023/12/28 06:39:12;;;;;;;8.68;2.00;;;;;;;;;;5017554;28;20221;-80
2023/12/28 06:41:38;;;;;;;10.90;2.30;;;;;;;;;;5027054;28;20190;-80
2023/12/28 06:44:03;;;;;;;13.52;1.88;;;;;;;;;;5013591;28;20554;-79
2023/12/28 06:46:29;;;;;;;11.13;1.60;;;;;;;;;;5003652;28;20692;-78
2023/12/28 06:48:54;;;;;;;12.98;2.55;;;;;;;;;;5027773;28;20276;-78
2023/12/28 06:51:21;;;;;;;6.97;1.70;;;;;;;;;;5032915;28;20237;-79
2023/12/28 06:53:48;;;;;;;12.57;2.00;;;;;;;;;;5017086;28;20190;-78
2023/12/28 06:56:14;;;;;;;9.65;2.58;;;;;;;;;;5015194;28;20182;-79
2023/12/28 06:58:40;;;;;;;20.98;2.80;;;;;;;;;;5023726;28;20264;-77
2023/12/28 07:01:05;;;;;;;13.80;2.03;;;;;;;;;;5013294;28;20281;-77
2023/12/28 07:03:32;;;;;;;11.38;2.10;;;;;;;;;;5030224;28;20500;-78
2023/12/28 07:06:02;;;;;;;13.43;2.10;;;;;;;;;;5018151;28;20543;-79
2023/12/28 07:08:28;;;;;;;17.05;1.70;;;;;;;;;;5031511;28;20245;-80
2023/12/28 07:10:54;;;;;;;9.48;2.30;;;;;;;;;;5000077;28;20545;-77
2023/12/28 07:13:19;;;;;;;12.77;2.00;;;;;;;;;;4999044;28;20203;-78
2023/12/28 07:15:45;;;;;;;13.18;2.33;;;;;;;;;;5030495;28;20237;-77
2023/12/28 07:18:10;;;;;;;14.32;2.20;;;;;;;;;;5031762;28;20326;-81
2023/12/28 07:20:35;;;;;;;13.25;2.60;;;;;;;;;;5019275;28;20234;-80
2023/12/28 07:23:01;;;;;;;18.58;2.22;;;;;;;;;;5031141;28;20287;-78
2023/12/28 07:25:26;;;;;;;13.50;3.17;;;;;;;;;;5032731;28;20270;-78
2023/12/28 07:27:52;;;;;;;12.05;2.25;;;;;;;;;;5017271;28;20186;-80
2023/12/28 07:30:17;;;;;;;14.25;2.67;;;;;;;;;;5021196;28;20217;-79
2023/12/28 07:32:44;;;;;;;14.90;2.90;;;;;;;;;;5036475;28;20197;-78
2023/12/28 07:35:10;;;;;;;17.30;2.40;;;;;;;;;;5031889;28;20322;-77
2023/12/28 07:37:36;;;;;;;13.43;2.80;;;;;;;;;;5030589;28;20194;-77
2023/12/28 07:40:03;;;;;;;17.55;2.35;;;;;;;;;;5016677;28;20190;-78
2023/12/28 07:42:28;;;;;;;14.57;2.25;;;;;;;;;;5016744;28;20182;-78
2023/12/28 07:44:54;;;;;;;12.73;2.22;;;;;;;;;;5035662;28;20225;-79
2023/12/28 07:47:19;;;;;;;13.30;2.65;;;;;;;;;;5017207;28;20591;-78
2023/12/28 07:49:45;;;;;;;14.80;2.13;;;;;;;;;;5033784;28;20256;-79
2023/12/28 07:52:10;;;;;;;16.45;2.30;;;;;;;;;;5029536;28;20195;-77
2023/12/28 07:54:36;;;;;;;17.05;2.47;;;;;;;;;;5036044;28;20186;-78
2023/12/28 07:57:01;;;;;;;9.77;2.55;;;;;;;;;;5030012;28;20272;-79
2023/12/28 07:59:26;;;;;;;14.80;2.80;;;;;;;;;;5019860;28;20182;-80
2023/12/28 08:01:52;;;;;;;14.48;1.90;;;;;;;;;;5003146;28;20249;-79
2023/12/28 08:04:17;;;;;;;14.20;2.40;;;;;;;;;;5020581;28;20217;-80
2023/12/28 08:06:43;;;;;;;20.25;2.03;;;;;;;;;;5022669;28;20193;-78
2023/12/28 08:09:08;;;;;;;14.10;2.80;;;;;;;;;;5034283;28;20209;-79
2023/12/28 08:11:34;;;;;;;16.52;2.58;;;;;;;;;;5034807;28;20292;-78
2023/12/28 08:14:00;;;;;;;14.10;2.55;;;;;;;;;;5032115;28;20186;-79
2023/12/28 08:16:26;;;;;;;19.60;2.78;;;;;;;;;;5020072;28;20276;-77
2023/12/28 08:18:52;;;;;;;14.65;2.47;;;;;;;;;;5028649;28;20277;-79
2023/12/28 08:21:18;;;;;;;13.80;2.50;;;;;;;;;;5014703;28;20230;-79
2023/12/28 08:23:44;;;;;;;13.20;2.53;;;;;;;;;;5003938;28;20501;-78
2023/12/28 08:26:10;;;;;;;12.70;2.45;;;;;;;;;;5032183;28;20209;-79
2023/12/28 08:28:36;;;;;;;16.85;2.55;;;;;;;;;;5014311;28;20194;-77
2023/12/28 08:31:02;;;;;;;12.00;2.22;;;;;;;;;;5027577;28;20538;-77
2023/12/28 08:33:27;;;;;;;18.42;2.45;;;;;;;;;;5019747;28;20183;-78
2023/12/28 08:35:53;;;;;;;16.88;3.10;;;;;;;;;;5007650;28;20182;-77
2023/12/28 08:38:19;;;;;;;13.15;2.03;;;;;;;;;;5012941;28;20186;-78
2023/12/28 08:40:44;;;;;;;17.25;3.55;;;;;;;;;;5007050;28;20216;-78
2023/12/28 08:43:10;;;;;;;18.65;3.22;;;;;;;;;;5014010;28;20190;-78
2023/12/28 08:45:36;;;;;;;14.30;2.05;;;;;;;;;;5014600;28;20214;-78
2023/12/28 08:48:02;;;;;;;16.75;2.97;;;;;;;;;;5027947;28;20269;-78
2023/12/28 08:50:27;;;;;;;18.30;3.00;;;;;;;;;;5017937;28;20278;-78
2023/12/28 08:52:53;;;;;;;15.85;2.88;;;;;;;;;;5002675;28;20230;-78
2023/12/28 08:55:18;;;;;;;20.55;2.95;;;;;;;;;;5008040;28;20690;-77
2023/12/28 08:57:43;;;;;;;14.55;2.83;;;;;;;;;;4996918;28;20622;-78
2023/12/28 09:00:10;;;;;;;12.35;2.65;;;;;;;;;;5027594;28;20187;-78
2023/12/28 09:02:36;;;;;;;19.23;2.90;;;;;;;;;;5030203;28;20201;-78
2023/12/28 09:05:01;;;;;;;14.15;2.40;;;;;;;;;;5029518;28;20221;-79
2023/12/28 09:07:26;;;;;;;17.20;2.42;;;;;;;;;;5031824;28;20697;-77
2023/12/28 09:09:52;;;;;;;16.77;2.70;;;;;;;;;;5023958;28;20586;-78
2023/12/28 09:12:18;;;;;;;16.63;2.63;;;;;;;;;;5023869;28;20204;-78
2023/12/28 09:14:43;;;;;;;11.82;2.60;;;;;;;;;;5025788;28;20208;-78
2023/12/28 09:17:09;;;;;;;16.10;2.78;;;;;;;;;;5028633;28;20196;-79
2023/12/28 09:19:34;;;;;;;14.05;2.33;;;;;;;;;;5027176;28;20292;-78
2023/12/28 09:22:00;;;;;;;22.48;2.47;;;;;;;;;;5028796;28;20201;-78
2023/12/28 09:24:25;;;;;;;18.15;2.20;;;;;;;;;;5020129;28;20186;-79
2023/12/28 09:26:51;;;;;;;21.63;3.70;;;;;;;;;;5015451;28;20198;-79
2023/12/28 09:29:16;;;;;;;17.98;2.75;;;;;;;;;;5001248;28;20174;-78
2023/12/28 09:31:41;;;;;;;16.30;2.10;;;;;;;;;;4994628;28;20252;-78
2023/12/28 09:34:07;;;;;;;13.68;2.70;;;;;;;;;;5013730;28;20194;-77
2023/12/28 09:36:32;;;;;;;20.75;3.03;;;;;;;;;;5014788;28;20197;-79
2023/12/28 09:38:58;;;;;;;22.60;2.92;;;;;;;;;;4997755;28;20181;-78
2023/12/28 09:41:26;;;;;;;11.82;2.40;;;;;;;;;;5010658;28;20243;-77
2023/12/28 09:43:57;;;;;;;13.85;2.08;;;;;;;;;;5005544;28;20226;-79
2023/12/28 09:46:23;;;;;;;15.95;3.20;;;;;;;;;;5016512;28;20206;-79
2023/12/28 09:48:49;;;;;;;13.70;2.60;;;;;;;;;;5016984;28;20190;-78
2023/12/28 09:51:16;;;;;;;14.15;2.55;;;;;;;;;;5019452;28;20225;-81
2023/12/28 09:53:43;;;;;;;18.15;2.15;;;;;;;;;;5011751;28;20210;-79
2023/12/28 09:56:09;;;;;;;18.73;2.45;;;;;;;;;;5008864;28;20189;-78
2023/12/28 09:58:36;;;;;;;17.80;2.47;;;;;;;;;;5033206;28;20273;-78
2023/12/28 10:01:03;;;;;;;19.42;3.35;;;;;;;;;;4998213;28;20651;-79
2023/12/28 10:03:28;;;;;;;19.42;3.50;;;;;;;;;;5030379;28;21807;-78
2023/12/28 10:05:54;;;;;;;15.82;2.42;;;;;;;;;;5023491;28;20373;-78
2023/12/28 10:08:19;;;;;;;19.35;2.65;;;;;;;;;;4995747;28;20174;-78
2023/12/28 10:10:50;;;;;;;21.50;3.42;;;;;;;;;;5028314;28;20632;-78
2023/12/28 10:13:16;;;;;;;16.52;2.50;;;;;;;;;;5024518;28;20221;-77
2023/12/28 10:15:43;;;;;;;17.10;2.40;;;;;;;;;;5030497;28;20890;-78
2023/12/28 10:18:09;;;;;;;12.20;2.65;;;;;;;;;;5016337;28;20285;-78
2023/12/28 10:20:34;;;;;;;14.63;2.58;;;;;;;;;;5024760;28;20289;-78
2023/12/28 10:23:00;;;;;;;14.93;3.25;;;;;;;;;;5008724;28;20674;-79
2023/12/28 10:25:27;;;;;;;12.50;2.55;;;;;;;;;;5013477;28;20210;-78
2023/12/28 10:27:53;;;;;;;17.13;2.70;;;;;;;;;;4999570;28;20197;-77
2023/12/28 10:30:20;;;;;;;18.60;2.58;;;;;;;;;;5022666;28;20190;-78
2023/12/28 10:32:46;;;;;;;18.92;2.90;;;;;;;;;;4995911;28;20230;-78
2023/12/28 10:35:12;;;;;;;20.48;3.67;;;;;;;;;;5012529;28;20179;-78
2023/12/28 10:37:43;;;;;;;15.88;2.53;;;;;;;;;;5009236;28;20275;-80
2023/12/28 10:40:15;;;;;;;15.50;2.42;;;;;;;;;;5005266;28;20550;-77
2023/12/28 10:42:51;;;;;;;15.75;2.55;;;;;;;;;;5016164;28;20182;-78
2023/12/28 10:45:20;;;;;;;16.67;2.72;;;;;;;;;;5014322;28;20211;-78
2023/12/28 10:48:04;;;;;;;17.15;2.78;;;;;;;;;;5016771;28;20215;-78
2023/12/28 10:50:40;;;;;;;17.13;2.72;;;;;;;;;;5027030;28;20253;-77
2023/12/28 10:53:44;;;;;;;20.02;2.42;;;;;;;;;;4986712;28;20187;-78
2023/12/28 10:56:18;;;;;;;18.90;2.97;;;;;;;;;;5011607;28;20199;-76
2023/12/28 10:58:48;;;;;;;17.63;3.22;;;;;;;;;;5013678;28;20571;-77
2023/12/28 11:01:21;;;;;;;19.67;3.13;;;;;;;;;;5008316;28;20183;-78
2023/12/28 11:03:50;;;;;;;18.73;2.92;;;;;;;;;;5016103;28;20534;-78
2023/12/28 11:06:17;;;;;;;15.00;2.72;;;;;;;;;;4997818;28;20210;-79
2023/12/28 11:08:48;;;;;;;19.13;2.60;;;;;;;;;;5012906;28;20190;-77
2023/12/28 11:11:21;;;;;;;19.46;2.96;;;;;;;;;;4525883;28;10002872;-78
2023/12/28 11:13:48;;;;;;;12.05;2.35;;;;;;;;;;5018764;28;20179;-77
2023/12/28 11:16:14;;;;;;;16.63;2.83;;;;;;;;;;4996471;28;20555;-77
2023/12/28 11:18:40;;;;;;;16.83;3.00;;;;;;;;;;5010996;28;20547;-77
2023/12/28 11:21:06;;;;;;;17.95;3.30;;;;;;;;;;5027109;28;20256;-77
2023/12/28 11:23:31;;;;;;;17.75;2.70;;;;;;;;;;5009891;28;20198;-78
2023/12/28 11:25:57;;;;;;;21.80;3.50;;;;;;;;;;5031839;28;20217;-77
2023/12/28 11:28:23;;;;;;;16.25;2.75;;;;;;;;;;5029976;28;20624;-79
2023/12/28 11:30:48;;;;;;;20.05;2.90;;;;;;;;;;5016274;28;20190;-77
2023/12/28 11:33:14;;;;;;;18.17;2.90;;;;;;;;;;5025182;28;20191;-77
2023/12/28 11:35:40;;;;;;;15.70;2.22;;;;;;;;;;5031637;28;20186;-77
2023/12/28 11:38:10;;;;;;;20.17;2.25;;;;;;;;;;5010489;28;20225;-77
2023/12/28 11:40:41;;;;;;;20.33;3.00;;;;;;;;;;5036541;28;20220;-75
2023/12/28 11:43:18;;;;;;;18.35;2.88;;;;;;;;;;5030080;28;20202;-77
2023/12/28 11:45:54;;;;;;;15.70;2.88;;;;;;;;;;4995901;28;20212;-77
2023/12/28 11:48:27;;;;;;;15.43;3.28;;;;;;;;;;5011616;28;20189;-76
2023/12/28 11:50:59;;;;;;;27.20;3.03;;;;;;;;;;5027280;28;20265;-80
2023/12/28 11:53:26;;;;;;;22.45;3.00;;;;;;;;;;5013181;28;20228;-76
2023/12/28 11:55:58;;;;;;;19.60;2.63;;;;;;;;;;5008846;28;20279;-79
2023/12/28 11:58:24;;;;;;;15.30;2.78;;;;;;;;;;5011419;28;20318;-77
2023/12/28 12:00:49;;;;;;;20.98;2.63;;;;;;;;;;5005175;28;20684;-76
2023/12/28 12:03:15;;;;;;;13.73;2.58;;;;;;;;;;5002444;28;20305;-77
2023/12/28 12:05:40;;;;;;;19.63;3.05;;;;;;;;;;4991184;28;20532;-77
2023/12/28 12:08:08;;;;;;;15.40;2.67;;;;;;;;;;5032262;28;20194;-77
2023/12/28 12:10:35;;;;;;;15.30;2.60;;;;;;;;;;5011431;28;20565;-78
2023/12/28 12:13:02;;;;;;;18.85;2.70;;;;;;;;;;5014984;28;20661;-77
2023/12/28 12:15:29;;;;;;;29.30;3.85;;;;;;;;;;5002334;28;20182;-78
2023/12/28 12:17:54;;;;;;;14.27;2.38;;;;;;;;;;5036140;28;20217;-77
2023/12/28 12:20:20;;;;;;;17.20;3.10;;;;;;;;;;5015357;28;20222;-78
2023/12/28 12:22:46;;;;;;;17.70;3.25;;;;;;;;;;5032392;28;20218;-79
2023/12/28 12:25:12;;;;;;;20.05;2.63;;;;;;;;;;5006456;28;20202;-76
2023/12/28 12:27:40;;;;;;;16.08;3.08;;;;;;;;;;5020749;28;20186;-78
2023/12/28 12:30:07;;;;;;;19.95;3.28;;;;;;;;;;5036845;28;20198;-79
2023/12/28 12:32:32;;;;;;;16.52;3.03;;;;;;;;;;5009141;28;20198;-78
2023/12/28 12:34:58;;;;;;;19.70;2.97;;;;;;;;;;5039693;28;20216;-78
2023/12/28 12:37:24;;;;;;;14.57;2.40;;;;;;;;;;5018146;28;20219;-79
2023/12/28 12:39:50;;;;;;;19.70;3.20;;;;;;;;;;5035816;28;20641;-78
2023/12/28 12:42:16;;;;;;;17.83;2.72;;;;;;;;;;5020094;28;20215;-78
2023/12/28 12:44:42;;;;;;;15.40;2.60;;;;;;;;;;4667786;28;9999613;-78
2023/12/28 12:47:07;;;;;;;16.85;3.03;;;;;;;;;;5000123;28;20622;-79
2023/12/28 12:49:33;;;;;;;20.55;2.92;;;;;;;;;;5037355;28;20190;-80
2023/12/28 12:51:59;;;;;;;16.52;2.88;;;;;;;;;;5023731;28;20528;-78
2023/12/28 12:54:26;;;;;;;14.32;2.60;;;;;;;;;;5015313;28;20213;-78
2023/12/28 12:56:52;;;;;;;22.77;3.17;;;;;;;;;;5016110;28;20225;-77
2023/12/28 12:59:18;;;;;;;13.18;2.80;;;;;;;;;;5031890;28;20194;-78
2023/12/28 13:01:44;;;;;;;17.33;2.85;;;;;;;;;;4998082;28;20201;-78
2023/12/28 13:04:11;;;;;;;21.17;3.10;;;;;;;;;;5019467;28;20209;-78
2023/12/28 13:06:36;;;;;;;20.52;3.15;;;;;;;;;;5022311;28;20215;-79
2023/12/28 13:09:02;;;;;;;17.95;3.38;;;;;;;;;;4999078;28;20201;-79
2023/12/28 13:11:28;;;;;;;18.83;2.97;;;;;;;;;;5030034;28;20560;-78
2023/12/28 13:13:53;;;;;;;22.30;3.55;;;;;;;;;;5008049;28;20186;-78
2023/12/28 13:16:19;;;;;;;24.25;2.88;;;;;;;;;;4995439;28;20197;-79
2023/12/28 13:18:44;;;;;;;18.27;2.88;;;;;;;;;;5024899;28;20293;-77
2023/12/28 13:21:10;;;;;;;20.50;3.20;;;;;;;;;;5025502;28;20194;-78
2023/12/28 13:23:35;;;;;;;22.13;3.17;;;;;;;;;;5023211;28;20717;-78
2023/12/28 13:26:01;;;;;;;25.35;2.80;;;;;;;;;;5027102;28;20217;-77
2023/12/28 13:28:26;;;;;;;14.07;3.10;;;;;;;;;;5026668;28;20198;-77
2023/12/28 13:30:55;;;;;;;18.40;2.70;;;;;;;;;;5029033;28;20190;-77
2023/12/28 13:33:21;;;;;;;19.77;4.15;;;;;;;;;;5031251;28;20182;-77
2023/12/28 13:35:46;;;;;;;18.73;4.28;;;;;;;;;;5032193;28;20336;-77
2023/12/28 13:38:12;;;;;;;17.67;3.47;;;;;;;;;;5022517;28;20764;-79
2023/12/28 13:40:37;;;;;;;19.83;3.30;;;;;;;;;;5014413;28;20210;-80
2023/12/28 13:43:03;;;;;;;16.25;3.40;;;;;;;;;;5015690;28;20194;-80
2023/12/28 13:45:28;;;;;;;20.63;3.33;;;;;;;;;;5034573;28;20212;-79
2023/12/28 13:47:54;;;;;;;25.20;3.03;;;;;;;;;;5037339;28;20623;-78
2023/12/28 13:50:20;;;;;;;22.60;2.83;;;;;;;;;;5013480;28;20665;-78
2023/12/28 13:52:45;;;;;;;17.52;3.58;;;;;;;;;;5026487;28;20251;-78
2023/12/28 13:55:11;;;;;;;21.48;2.63;;;;;;;;;;5013319;28;20195;-78
2023/12/28 13:57:37;;;;;;;17.13;3.17;;;;;;;;;;5021941;28;20183;-79
2023/12/28 14:00:03;;;;;;;19.80;3.00;;;;;;;;;;4669165;28;9999655;-78
2023/12/28 14:02:28;;;;;;;26.38;3.83;;;;;;;;;;5008754;28;20191;-77
2023/12/28 14:04:56;;;;;;;14.88;2.85;;;;;;;;;;5020917;28;20194;-77
2023/12/28 14:07:24;;;;;;;14.75;3.05;;;;;;;;;;5016945;28;20799;-79
2023/12/28 14:09:50;;;;;;;25.55;3.17;;;;;;;;;;5016843;28;20244;-78
2023/12/28 14:12:16;;;;;;;17.15;2.97;;;;;;;;;;5032495;28;20198;-79
2023/12/28 14:14:41;;;;;;;20.88;3.10;;;;;;;;;;5037562;28;20196;-78
2023/12/28 14:17:07;;;;;;;18.48;2.90;;;;;;;;;;5019457;28;20357;-78
2023/12/28 14:19:32;;;;;;;17.33;2.60;;;;;;;;;;5015103;28;20321;-80
2023/12/28 14:21:59;;;;;;;18.65;2.63;;;;;;;;;;5012513;28;20195;-78
2023/12/28 14:24:25;;;;;;;15.80;2.90;;;;;;;;;;5017483;28;20282;-79
2023/12/28 14:26:53;;;;;;;18.70;3.00;;;;;;;;;;5010939;28;20294;-78
2023/12/28 14:29:20;;;;;;;16.23;2.60;;;;;;;;;;4993528;28;20311;-76
2023/12/28 14:31:46;;;;;;;17.70;2.75;;;;;;;;;;4991596;28;20195;-79